createdAt,value
2017-04-13T00:00:42.801Z,1005.67
2017-04-13T00:01:42.778Z,1005.63
2017-04-13T00:02:42.758Z,1005.6
2017-04-13T00:03:42.733Z,1005.7
2017-04-13T00:04:42.709Z,1005.7
2017-04-13T00:05:42.685Z,1005.69
2017-04-13T00:06:42.660Z,1005.68
2017-04-13T00:07:42.641Z,1005.62
2017-04-13T00:08:42.614Z,1005.66
2017-04-13T00:09:42.593Z,1005.67
2017-04-13T00:10:42.569Z,1005.68
2017-04-13T00:11:42.546Z,1005.64
2017-04-13T00:12:42.520Z,1005.62
2017-04-13T00:13:42.499Z,1005.61
2017-04-13T00:14:42.476Z,1005.59
2017-04-13T00:15:42.454Z,1005.61
2017-04-13T00:16:42.427Z,1005.6
2017-04-13T00:17:42.406Z,1005.62
2017-04-13T00:18:42.383Z,1005.6
2017-04-13T00:19:42.359Z,1005.55
2017-04-13T00:20:42.383Z,1005.59
2017-04-13T00:21:42.310Z,1005.59
2017-04-13T00:22:42.288Z,1005.61
2017-04-13T00:23:42.270Z,1005.65
2017-04-13T00:24:42.242Z,1005.63
2017-04-13T00:25:42.219Z,1005.65
2017-04-13T00:26:42.195Z,1005.65
2017-04-13T00:27:42.172Z,1005.67
2017-04-13T00:28:44.104Z,1005.68
2017-04-13T00:29:42.125Z,1005.7
2017-04-13T00:30:42.103Z,1005.64
2017-04-13T00:31:42.089Z,1005.63
2017-04-13T00:32:42.108Z,1005.64
2017-04-13T00:33:42.031Z,1005.62
2017-04-13T00:34:42.012Z,1005.64
2017-04-13T00:35:41.986Z,1005.58
2017-04-13T00:36:41.962Z,1005.6
2017-04-13T00:37:41.939Z,1005.61
2017-04-13T00:38:41.917Z,1005.57
2017-04-13T00:39:41.894Z,1005.58
2017-04-13T00:40:41.872Z,1005.55
2017-04-13T00:41:41.847Z,1005.59
2017-04-13T00:42:41.824Z,1005.57
2017-04-13T00:43:41.802Z,1005.53
2017-04-13T00:44:41.776Z,1005.55
2017-04-13T00:45:41.754Z,1005.48
2017-04-13T00:46:41.731Z,1005.51
2017-04-13T00:47:41.708Z,1005.5
2017-04-13T00:48:41.683Z,1005.51
2017-04-13T00:49:41.662Z,1005.49
2017-04-13T00:50:41.640Z,1005.47
2017-04-13T00:51:41.617Z,1005.47
2017-04-13T00:52:41.595Z,1005.47
2017-04-13T00:53:41.618Z,1005.51
2017-04-13T00:54:41.545Z,1005.49
2017-04-13T00:55:41.522Z,1005.48
2017-04-13T00:56:41.499Z,1005.51
2017-04-13T00:57:41.474Z,1005.47
2017-04-13T00:58:41.452Z,1005.54
2017-04-13T00:59:41.429Z,1005.5
2017-04-13T01:00:41.405Z,1005.47
2017-04-13T01:01:41.385Z,1005.51
2017-04-13T01:02:41.359Z,1005.49
2017-04-13T01:03:41.385Z,1005.49
2017-04-13T01:04:41.313Z,1005.51
2017-04-13T01:05:41.289Z,1005.46
2017-04-13T01:06:41.271Z,1005.47
2017-04-13T01:07:41.240Z,1005.46
2017-04-13T01:08:41.219Z,1005.48
2017-04-13T01:09:41.197Z,1005.48
2017-04-13T01:10:41.175Z,1005.41
2017-04-13T01:11:41.151Z,1005.44
2017-04-13T01:12:41.124Z,1005.38
2017-04-13T01:13:41.103Z,1005.41
2017-04-13T01:14:41.080Z,1005.38
2017-04-13T01:15:41.056Z,1005.41
2017-04-13T01:16:41.074Z,1005.4
2017-04-13T01:17:41.009Z,1005.41
2017-04-13T01:18:40.986Z,1005.41
2017-04-13T01:19:40.965Z,1005.38
2017-04-13T01:20:40.941Z,1005.4
2017-04-13T01:21:40.918Z,1005.41
2017-04-13T01:22:40.897Z,1005.39
2017-04-13T01:23:40.870Z,1005.35
2017-04-13T01:24:40.846Z,1005.34
2017-04-13T01:25:40.824Z,1005.32
2017-04-13T01:26:40.803Z,1005.35
2017-04-13T01:27:40.781Z,1005.45
2017-04-13T01:28:40.754Z,1005.37
2017-04-13T01:29:40.731Z,1005.33
2017-04-13T01:30:40.708Z,1005.35
2017-04-13T01:31:40.684Z,1005.35
2017-04-13T01:32:40.665Z,1005.4
2017-04-13T01:33:40.637Z,1005.42
2017-04-13T01:34:40.613Z,1005.4
2017-04-13T01:35:40.604Z,1005.44
2017-04-13T01:36:42.519Z,1005.44
2017-04-13T01:37:40.545Z,1005.46
2017-04-13T01:38:40.521Z,1005.46
2017-04-13T01:39:40.496Z,1005.47
2017-04-13T01:40:40.477Z,1005.45
2017-04-13T01:41:40.701Z,1005.43
2017-04-13T01:42:40.427Z,1005.42
2017-04-13T01:43:40.409Z,1005.42
2017-04-13T01:44:40.384Z,1005.45
2017-04-13T01:45:40.361Z,1005.48
2017-04-13T01:46:40.387Z,1005.47
2017-04-13T01:47:40.309Z,1005.47
2017-04-13T01:48:40.288Z,1005.47
2017-04-13T01:49:40.264Z,1005.47
2017-04-13T01:50:40.240Z,1005.46
2017-04-13T01:51:40.216Z,1005.5
2017-04-13T01:52:40.198Z,1005.5
2017-04-13T01:53:40.170Z,1005.49
2017-04-13T01:54:40.149Z,1005.49
2017-04-13T01:55:40.124Z,1005.51
2017-04-13T01:56:40.105Z,1005.48
2017-04-13T01:57:40.078Z,1005.49
2017-04-13T01:58:40.056Z,1005.46
2017-04-13T01:59:40.037Z,1005.45
2017-04-13T02:00:40.008Z,1005.46
2017-04-13T02:01:39.984Z,1005.45
2017-04-13T02:02:39.960Z,1005.44
2017-04-13T02:03:39.939Z,1005.45
2017-04-13T02:04:39.918Z,1005.46
2017-04-13T02:05:39.891Z,1005.49
2017-04-13T02:06:39.871Z,1005.53
2017-04-13T02:07:39.844Z,1005.52
2017-04-13T02:08:39.823Z,1005.52
2017-04-13T02:09:39.797Z,1005.53
2017-04-13T02:10:39.775Z,1005.55
2017-04-13T02:11:39.751Z,1005.48
2017-04-13T02:12:39.727Z,1005.52
2017-04-13T02:13:39.706Z,1005.56
2017-04-13T02:14:39.678Z,1005.56
2017-04-13T02:15:39.657Z,1005.55
2017-04-13T02:16:39.636Z,1005.55
2017-04-13T02:17:39.615Z,1005.52
2017-04-13T02:18:39.591Z,1005.53
2017-04-13T02:19:39.562Z,1005.5
2017-04-13T02:20:39.539Z,1005.55
2017-04-13T02:21:39.568Z,1005.57
2017-04-13T02:22:39.495Z,1005.51
2017-04-13T02:23:39.470Z,1005.53
2017-04-13T02:24:39.446Z,1005.52
2017-04-13T02:25:39.421Z,1005.51
2017-04-13T02:26:39.401Z,1005.53
2017-04-13T02:27:39.378Z,1005.56
2017-04-13T02:28:39.353Z,1005.58
2017-04-13T02:29:39.330Z,1005.54
2017-04-13T02:30:39.305Z,1005.56
2017-04-13T02:31:39.284Z,1005.6
2017-04-13T02:32:39.259Z,1005.58
2017-04-13T02:33:39.241Z,1005.55
2017-04-13T02:34:39.220Z,1005.58
2017-04-13T02:35:39.190Z,1005.59
2017-04-13T02:36:39.166Z,1005.55
2017-04-13T02:37:39.150Z,1005.59
2017-04-13T02:38:39.128Z,1005.58
2017-04-13T02:39:39.095Z,1005.56
2017-04-13T02:40:39.075Z,1005.53
2017-04-13T02:41:39.051Z,1005.54
2017-04-13T02:42:39.025Z,1005.54
2017-04-13T02:43:39.003Z,1005.51
2017-04-13T02:44:38.982Z,1005.48
2017-04-13T02:45:39.007Z,1005.53
2017-04-13T02:46:38.934Z,1005.5
2017-04-13T02:47:38.910Z,1005.46
2017-04-13T02:48:38.887Z,1005.46
2017-04-13T02:49:38.863Z,1005.47
2017-04-13T02:50:38.889Z,1005.45
2017-04-13T02:51:38.820Z,1005.45
2017-04-13T02:52:38.791Z,1005.47
2017-04-13T02:53:38.770Z,1005.43
2017-04-13T02:54:38.746Z,1005.42
2017-04-13T02:55:38.724Z,1005.44
2017-04-13T02:56:38.699Z,1005.42
2017-04-13T02:57:38.676Z,1005.41
2017-04-13T02:58:38.657Z,1005.4
2017-04-13T02:59:40.232Z,1005.42
2017-04-13T03:00:38.611Z,1005.43
2017-04-13T03:01:38.585Z,1005.44
2017-04-13T03:02:38.562Z,1005.45
2017-04-13T03:03:38.541Z,1005.48
2017-04-13T03:04:38.558Z,1005.47
2017-04-13T03:05:38.493Z,1005.45
2017-04-13T03:06:38.469Z,1005.45
2017-04-13T03:07:38.447Z,1005.46
2017-04-13T03:08:38.425Z,1005.51
2017-04-13T03:09:38.401Z,1005.5
2017-04-13T03:10:39.232Z,1005.52
2017-04-13T03:11:38.353Z,1005.49
2017-04-13T03:12:38.330Z,1005.49
2017-04-13T03:13:38.809Z,1005.44
2017-04-13T03:14:38.282Z,1005.43
2017-04-13T03:15:38.262Z,1005.39
2017-04-13T03:16:38.236Z,1005.38
2017-04-13T03:17:38.264Z,1005.41
2017-04-13T03:18:38.190Z,1005.42
2017-04-13T03:19:38.169Z,1005.44
2017-04-13T03:20:38.148Z,1005.43
2017-04-13T03:21:38.121Z,1005.44
2017-04-13T03:22:38.096Z,1005.45
2017-04-13T03:23:38.125Z,1005.42
2017-04-13T03:24:38.052Z,1005.47
2017-04-13T03:25:38.026Z,1005.44
2017-04-13T03:26:38.005Z,1005.44
2017-04-13T03:27:37.984Z,1005.47
2017-04-13T03:28:37.957Z,1005.49
2017-04-13T03:29:37.938Z,1005.51
2017-04-13T03:30:37.912Z,1005.57
2017-04-13T03:31:37.889Z,1005.51
2017-04-13T03:32:37.863Z,1005.56
2017-04-13T03:33:37.842Z,1005.5
2017-04-13T03:34:37.819Z,1005.53
2017-04-13T03:35:37.794Z,1005.47
2017-04-13T03:36:37.772Z,1005.52
2017-04-13T03:37:37.750Z,1005.5
2017-04-13T03:38:37.729Z,1005.44
2017-04-13T03:39:37.703Z,1005.43
2017-04-13T03:40:37.678Z,1005.44
2017-04-13T03:41:37.655Z,1005.45
2017-04-13T03:42:37.631Z,1005.39
2017-04-13T03:43:37.608Z,1005.38
2017-04-13T03:44:37.584Z,1005.4
2017-04-13T03:45:37.560Z,1005.41
2017-04-13T03:46:37.539Z,1005.38
2017-04-13T03:47:37.515Z,1005.42
2017-04-13T03:48:37.494Z,1005.42
2017-04-13T03:49:37.471Z,1005.33
2017-04-13T03:50:37.446Z,1005.41
2017-04-13T03:51:37.422Z,1005.36
2017-04-13T03:52:37.399Z,1005.37
2017-04-13T03:53:37.373Z,1005.4
2017-04-13T03:54:37.351Z,1005.41
2017-04-13T03:55:37.331Z,1005.41
2017-04-13T03:56:37.304Z,1005.38
2017-04-13T03:57:37.283Z,1005.42
2017-04-13T03:58:37.257Z,1005.38
2017-04-13T03:59:37.237Z,1005.36
2017-04-13T04:00:37.211Z,1005.4
2017-04-13T04:01:37.190Z,1005.35
2017-04-13T04:02:37.166Z,1005.37
2017-04-13T04:03:37.141Z,1005.4
2017-04-13T04:04:37.119Z,1005.38
2017-04-13T04:05:37.094Z,1005.39
2017-04-13T04:06:37.071Z,1005.36
2017-04-13T04:07:37.049Z,1005.41
2017-04-13T04:08:37.275Z,1005.35
2017-04-13T04:09:37.003Z,1005.34
2017-04-13T04:10:36.980Z,1005.35
2017-04-13T04:11:36.957Z,1005.39
2017-04-13T04:12:36.936Z,1005.34
2017-04-13T04:13:36.907Z,1005.35
2017-04-13T04:14:36.886Z,1005.35
2017-04-13T04:15:36.861Z,1005.34
2017-04-13T04:16:36.836Z,1005.38
2017-04-13T04:17:36.814Z,1005.36
2017-04-13T04:18:36.841Z,1005.42
2017-04-13T04:19:36.772Z,1005.37
2017-04-13T04:20:36.745Z,1005.41
2017-04-13T04:21:36.727Z,1005.39
2017-04-13T04:22:36.701Z,1005.45
2017-04-13T04:23:36.675Z,1005.46
2017-04-13T04:24:36.651Z,1005.47
2017-04-13T04:25:36.628Z,1005.49
2017-04-13T04:26:36.605Z,1005.47
2017-04-13T04:27:36.582Z,1005.45
2017-04-13T04:28:36.557Z,1005.46
2017-04-13T04:29:36.536Z,1005.45
2017-04-13T04:30:36.509Z,1005.45
2017-04-13T04:31:36.486Z,1005.47
2017-04-13T04:32:37.066Z,1005.46
2017-04-13T04:33:36.443Z,1005.47
2017-04-13T04:34:36.419Z,1005.49
2017-04-13T04:35:36.396Z,1005.49
2017-04-13T04:36:36.373Z,1005.49
2017-04-13T04:37:36.349Z,1005.47
2017-04-13T04:38:36.327Z,1005.54
2017-04-13T04:39:36.304Z,1005.54
2017-04-13T04:40:36.281Z,1005.53
2017-04-13T04:41:36.262Z,1005.55
2017-04-13T04:42:36.238Z,1005.51
2017-04-13T04:43:36.263Z,1005.51
2017-04-13T04:44:36.192Z,1005.49
2017-04-13T04:45:36.161Z,1005.51
2017-04-13T04:46:36.150Z,1005.56
2017-04-13T04:47:36.120Z,1005.49
2017-04-13T04:48:36.101Z,1005.49
2017-04-13T04:49:36.069Z,1005.5
2017-04-13T04:50:36.049Z,1005.51
2017-04-13T04:51:36.029Z,1005.57
2017-04-13T04:52:36.012Z,1005.56
2017-04-13T04:53:35.979Z,1005.56
2017-04-13T04:54:35.953Z,1005.58
2017-04-13T04:55:35.932Z,1005.58
2017-04-13T04:56:35.909Z,1005.65
2017-04-13T04:57:35.884Z,1005.6
2017-04-13T04:58:35.859Z,1005.66
2017-04-13T04:59:35.838Z,1005.65
2017-04-13T05:00:35.818Z,1005.65
2017-04-13T05:01:35.791Z,1005.66
2017-04-13T05:02:35.768Z,1005.67
2017-04-13T05:03:35.745Z,1005.66
2017-04-13T05:04:35.727Z,1005.69
2017-04-13T05:05:35.698Z,1005.71
2017-04-13T05:06:35.674Z,1005.73
2017-04-13T05:07:35.650Z,1005.71
2017-04-13T05:08:35.628Z,1005.78
2017-04-13T05:09:35.656Z,1005.78
2017-04-13T05:10:35.582Z,1005.72
2017-04-13T05:11:35.559Z,1005.73
2017-04-13T05:12:35.536Z,1005.72
2017-04-13T05:13:35.513Z,1005.75
2017-04-13T05:14:35.489Z,1005.77
2017-04-13T05:15:35.467Z,1005.75
2017-04-13T05:16:35.445Z,1005.76
2017-04-13T05:17:35.421Z,1005.82
2017-04-13T05:18:35.446Z,1005.79
2017-04-13T05:19:35.372Z,1005.78
2017-04-13T05:20:35.353Z,1005.79
2017-04-13T05:21:35.327Z,1005.79
2017-04-13T05:22:35.301Z,1005.83
2017-04-13T05:23:35.278Z,1005.8
2017-04-13T05:24:35.257Z,1005.74
2017-04-13T05:25:35.236Z,1005.81
2017-04-13T05:26:35.219Z,1005.85
2017-04-13T05:27:35.187Z,1005.81
2017-04-13T05:28:35.164Z,1005.83
2017-04-13T05:29:35.141Z,1005.92
2017-04-13T05:30:35.118Z,1005.91
2017-04-13T05:31:35.095Z,1005.9
2017-04-13T05:32:35.070Z,1005.9
2017-04-13T05:33:35.048Z,1005.94
2017-04-13T05:34:35.025Z,1005.93
2017-04-13T05:35:35.001Z,1005.96
2017-04-13T05:36:34.978Z,1005.92
2017-04-13T05:37:34.956Z,1005.97
2017-04-13T05:38:34.933Z,1005.94
2017-04-13T05:39:34.916Z,1005.94
2017-04-13T05:40:34.934Z,1005.96
2017-04-13T05:41:34.862Z,1005.95
2017-04-13T05:42:34.839Z,1005.96
2017-04-13T05:43:34.820Z,1005.96
2017-04-13T05:44:34.793Z,1005.94
2017-04-13T05:45:34.774Z,1005.98
2017-04-13T05:46:34.748Z,1006
2017-04-13T05:47:34.724Z,1006
2017-04-13T05:48:34.745Z,1005.99
2017-04-13T05:49:34.677Z,1006.01
2017-04-13T05:50:34.657Z,1006.03
2017-04-13T05:51:34.632Z,1006.05
2017-04-13T05:52:34.610Z,1006.09
2017-04-13T05:53:34.588Z,1006.07
2017-04-13T05:54:34.564Z,1006.1
2017-04-13T05:55:34.542Z,1006.07
2017-04-13T05:56:34.520Z,1006.12
2017-04-13T05:57:34.495Z,1006.1
2017-04-13T05:58:34.474Z,1006.13
2017-04-13T05:59:34.447Z,1006.07
2017-04-13T06:00:34.427Z,1006.11
2017-04-13T06:01:34.407Z,1006.15
2017-04-13T06:02:34.381Z,1006.16
2017-04-13T06:03:34.358Z,1006.19
2017-04-13T06:04:34.384Z,1006.17
2017-04-13T06:05:34.313Z,1006.21
2017-04-13T06:06:34.290Z,1006.21
2017-04-13T06:07:34.266Z,1006.18
2017-04-13T06:08:34.242Z,1006.22
2017-04-13T06:09:34.222Z,1006.18
2017-04-13T06:10:34.199Z,1006.21
2017-04-13T06:11:34.178Z,1006.24
2017-04-13T06:12:34.166Z,1006.25
2017-04-13T06:13:34.131Z,1006.23
2017-04-13T06:14:34.110Z,1006.24
2017-04-13T06:15:34.083Z,1006.26
2017-04-13T06:16:34.062Z,1006.29
2017-04-13T06:17:34.038Z,1006.28
2017-04-13T06:18:34.017Z,1006.3
2017-04-13T06:19:33.992Z,1006.29
2017-04-13T06:20:33.969Z,1006.34
2017-04-13T06:21:33.949Z,1006.33
2017-04-13T06:22:33.927Z,1006.31
2017-04-13T06:23:33.907Z,1006.34
2017-04-13T06:24:33.880Z,1006.33
2017-04-13T06:25:33.862Z,1006.32
2017-04-13T06:26:33.838Z,1006.32
2017-04-13T06:27:33.815Z,1006.34
2017-04-13T06:28:33.791Z,1006.39
2017-04-13T06:29:33.769Z,1006.4
2017-04-13T06:30:33.748Z,1006.36
2017-04-13T06:31:33.723Z,1006.36
2017-04-13T06:32:33.732Z,1006.39
2017-04-13T06:33:33.679Z,1006.46
2017-04-13T06:34:33.660Z,1006.44
2017-04-13T06:35:33.633Z,1006.48
2017-04-13T06:36:33.663Z,1006.49
2017-04-13T06:37:33.638Z,1006.51
2017-04-13T06:38:33.616Z,1006.52
2017-04-13T06:39:33.593Z,1006.54
2017-04-13T06:40:33.520Z,1006.54
2017-04-13T06:41:33.500Z,1006.57
2017-04-13T06:42:33.476Z,1006.59
2017-04-13T06:43:33.453Z,1006.64
2017-04-13T06:44:33.431Z,1006.65
2017-04-13T06:45:33.410Z,1006.61
2017-04-13T06:46:33.387Z,1006.69
2017-04-13T06:47:33.364Z,1006.7
2017-04-13T06:48:33.393Z,1006.65
2017-04-13T06:49:33.320Z,1006.62
2017-04-13T06:50:33.296Z,1006.65
2017-04-13T06:51:33.275Z,1006.69
2017-04-13T06:52:33.252Z,1006.69
2017-04-13T06:53:33.228Z,1006.65
2017-04-13T06:54:33.207Z,1006.7
2017-04-13T06:55:33.186Z,1006.7
2017-04-13T06:56:33.163Z,1006.76
2017-04-13T06:57:33.139Z,1006.73
2017-04-13T06:58:33.118Z,1006.76
2017-04-13T06:59:33.096Z,1006.74
2017-04-13T07:00:33.074Z,1006.71
2017-04-13T07:01:33.101Z,1006.71
2017-04-13T07:02:33.033Z,1006.76
2017-04-13T07:03:33.006Z,1006.74
2017-04-13T07:04:33.283Z,1006.75
2017-04-13T07:05:32.962Z,1006.75
2017-04-13T07:06:33.088Z,1006.79
2017-04-13T07:07:32.912Z,1006.82
2017-04-13T07:08:32.944Z,1006.79
2017-04-13T07:09:32.879Z,1006.82
2017-04-13T07:10:32.850Z,1006.87
2017-04-13T07:11:32.827Z,1006.82
2017-04-13T07:12:32.804Z,1006.81
2017-04-13T07:13:32.782Z,1006.8
2017-04-13T07:14:32.763Z,1006.79
2017-04-13T07:15:32.738Z,1006.76
2017-04-13T07:16:32.717Z,1006.77
2017-04-13T07:17:32.693Z,1006.78
2017-04-13T07:18:32.672Z,1006.81
2017-04-13T07:19:32.647Z,1006.87
2017-04-13T07:20:32.627Z,1006.85
2017-04-13T07:21:32.605Z,1006.83
2017-04-13T07:22:32.584Z,1006.87
2017-04-13T07:23:32.561Z,1006.86
2017-04-13T07:24:32.540Z,1006.88
2017-04-13T07:25:32.518Z,1006.94
2017-04-13T07:26:32.494Z,1006.91
2017-04-13T07:27:32.471Z,1006.93
2017-04-13T07:28:32.447Z,1007
2017-04-13T07:29:32.426Z,1006.93
2017-04-13T07:30:32.403Z,1006.98
2017-04-13T07:31:32.381Z,1007
2017-04-13T07:32:32.362Z,1007.04
2017-04-13T07:33:32.340Z,1006.97
2017-04-13T07:34:32.317Z,1007.01
2017-04-13T07:35:32.294Z,1007.12
2017-04-13T07:36:32.271Z,1007.05
2017-04-13T07:37:32.246Z,1007.08
2017-04-13T07:38:32.227Z,1007.06
2017-04-13T07:39:32.205Z,1007.11
2017-04-13T07:40:32.185Z,1007.12
2017-04-13T07:41:32.157Z,1007.16
2017-04-13T07:42:32.139Z,1007.15
2017-04-13T07:43:32.116Z,1007.16
2017-04-13T07:44:32.092Z,1007.19
2017-04-13T07:45:32.072Z,1007.22
2017-04-13T07:46:32.045Z,1007.22
2017-04-13T07:47:32.027Z,1007.22
2017-04-13T07:48:32.009Z,1007.2
2017-04-13T07:49:31.980Z,1007.24
2017-04-13T07:50:31.959Z,1007.29
2017-04-13T07:51:31.938Z,1007.25
2017-04-13T07:52:31.915Z,1007.3
2017-04-13T07:53:31.943Z,1007.33
2017-04-13T07:54:31.873Z,1007.34
2017-04-13T07:55:31.846Z,1007.33
2017-04-13T07:56:31.827Z,1007.37
2017-04-13T07:57:31.802Z,1007.33
2017-04-13T07:58:31.781Z,1007.35
2017-04-13T07:59:31.754Z,1007.39
2017-04-13T08:00:31.735Z,1007.39
2017-04-13T08:01:31.715Z,1007.39
2017-04-13T08:02:31.694Z,1007.42
2017-04-13T08:03:31.669Z,1007.42
2017-04-13T08:04:31.652Z,1007.38
2017-04-13T08:05:31.625Z,1007.43
2017-04-13T08:06:31.601Z,1007.44
2017-04-13T08:07:31.579Z,1007.44
2017-04-13T08:08:31.561Z,1007.52
2017-04-13T08:09:31.538Z,1007.46
2017-04-13T08:10:31.515Z,1007.47
2017-04-13T08:11:31.498Z,1007.51
2017-04-13T08:12:31.469Z,1007.53
2017-04-13T08:13:31.446Z,1007.57
2017-04-13T08:14:31.425Z,1007.56
2017-04-13T08:15:31.404Z,1007.51
2017-04-13T08:16:31.379Z,1007.58
2017-04-13T08:17:31.354Z,1007.56
2017-04-13T08:18:31.335Z,1007.55
2017-04-13T08:19:31.314Z,1007.59
2017-04-13T08:20:31.344Z,1007.57
2017-04-13T08:21:31.271Z,1007.52
2017-04-13T08:22:31.248Z,1007.55
2017-04-13T08:23:31.221Z,1007.54
2017-04-13T08:24:31.205Z,1007.6
2017-04-13T08:25:31.180Z,1007.62
2017-04-13T08:26:31.157Z,1007.55
2017-04-13T08:27:31.133Z,1007.58
2017-04-13T08:28:31.111Z,1007.58
2017-04-13T08:29:31.090Z,1007.61
2017-04-13T08:30:31.069Z,1007.62
2017-04-13T08:31:31.050Z,1007.63
2017-04-13T08:32:31.029Z,1007.68
2017-04-13T08:33:31.005Z,1007.72
2017-04-13T08:34:30.980Z,1007.71
2017-04-13T08:35:30.961Z,1007.67
2017-04-13T08:36:30.939Z,1007.66
2017-04-13T08:37:30.916Z,1007.7
2017-04-13T08:38:30.893Z,1007.72
2017-04-13T08:39:30.873Z,1007.69
2017-04-13T08:40:30.901Z,1007.67
2017-04-13T08:41:30.829Z,1007.68
2017-04-13T08:42:30.805Z,1007.63
2017-04-13T08:43:30.786Z,1007.72
2017-04-13T08:44:30.768Z,1007.77
2017-04-13T08:45:30.742Z,1007.76
2017-04-13T08:46:30.720Z,1007.76
2017-04-13T08:47:30.700Z,1007.74
2017-04-13T08:48:30.679Z,1007.73
2017-04-13T08:49:30.657Z,1007.81
2017-04-13T08:50:30.638Z,1007.75
2017-04-13T08:51:30.614Z,1007.71
2017-04-13T08:52:30.594Z,1007.83
2017-04-13T08:53:30.573Z,1007.79
2017-04-13T08:54:31.052Z,1007.86
2017-04-13T08:55:30.530Z,1007.82
2017-04-13T08:56:30.513Z,1007.82
2017-04-13T08:57:30.541Z,1007.78
2017-04-13T08:58:30.474Z,1007.79
2017-04-13T08:59:30.451Z,1007.76
2017-04-13T09:00:30.434Z,1007.85
2017-04-13T09:01:30.463Z,1007.83
2017-04-13T09:02:30.390Z,1007.82
2017-04-13T09:03:30.421Z,1007.86
2017-04-13T09:04:30.352Z,1007.85
2017-04-13T09:05:30.334Z,1007.86
2017-04-13T09:06:30.313Z,1007.83
2017-04-13T09:07:30.295Z,1007.89
2017-04-13T09:08:30.272Z,1007.89
2017-04-13T09:09:30.253Z,1007.93
2017-04-13T09:10:30.230Z,1007.9
2017-04-13T09:11:30.214Z,1007.91
2017-04-13T09:12:30.191Z,1007.95
2017-04-13T09:13:30.172Z,1007.9
2017-04-13T09:14:30.150Z,1007.88
2017-04-13T09:15:30.132Z,1007.9
2017-04-13T09:16:30.109Z,1007.96
2017-04-13T09:17:30.093Z,1007.81
2017-04-13T09:18:30.068Z,1007.97
2017-04-13T09:19:30.065Z,1007.91
2017-04-13T09:20:30.030Z,1007.99
2017-04-13T09:21:30.008Z,1008.02
2017-04-13T09:22:29.988Z,1007.98
2017-04-13T09:23:29.964Z,1008.02
2017-04-13T09:24:29.948Z,1007.95
2017-04-13T09:25:29.924Z,1008.07
2017-04-13T09:26:29.903Z,1008.04
2017-04-13T09:27:29.884Z,1007.95
2017-04-13T09:28:29.860Z,1007.93
2017-04-13T09:29:29.843Z,1008.01
2017-04-13T09:30:29.825Z,1008.06
2017-04-13T09:31:29.798Z,1008.02
2017-04-13T09:32:29.779Z,1008.04
2017-04-13T09:33:29.760Z,1008.05
2017-04-13T09:34:29.736Z,1008.02
2017-04-13T09:35:29.714Z,1008
2017-04-13T09:36:29.692Z,1007.98
2017-04-13T09:37:29.679Z,1007.99
2017-04-13T09:38:29.652Z,1008
2017-04-13T09:39:29.631Z,1008.01
2017-04-13T09:40:29.607Z,1007.98
2017-04-13T09:41:29.587Z,1007.98
2017-04-13T09:42:29.566Z,1007.96
2017-04-13T09:43:29.544Z,1007.94
2017-04-13T09:44:29.527Z,1007.94
2017-04-13T09:45:29.503Z,1007.91
2017-04-13T09:46:29.485Z,1007.94
2017-04-13T09:47:29.463Z,1007.95
2017-04-13T09:48:29.444Z,1007.98
2017-04-13T09:49:29.422Z,1007.93
2017-04-13T09:50:29.399Z,1007.99
2017-04-13T09:51:29.379Z,1007.94
2017-04-13T09:52:29.355Z,1007.93
2017-04-13T09:53:29.338Z,1007.97
2017-04-13T09:54:29.315Z,1007.93
2017-04-13T09:55:29.294Z,1007.92
2017-04-13T09:56:29.274Z,1007.93
2017-04-13T09:57:29.253Z,1007.97
2017-04-13T09:58:29.234Z,1007.95
2017-04-13T09:59:29.217Z,1008
2017-04-13T10:00:29.191Z,1007.95
2017-04-13T10:01:29.169Z,1007.97
2017-04-13T10:02:29.147Z,1008.01
2017-04-13T10:03:29.125Z,1008.03
2017-04-13T10:04:29.107Z,1007.99
2017-04-13T10:05:29.086Z,1008
2017-04-13T10:06:29.064Z,1007.98
2017-04-13T10:07:29.050Z,1008.03
2017-04-13T10:08:29.021Z,1008
2017-04-13T10:09:28.999Z,1008.02
2017-04-13T10:10:28.979Z,1008.03
2017-04-13T10:11:30.609Z,1007.97
2017-04-13T10:12:28.953Z,1008
2017-04-13T10:13:28.914Z,1007.99
2017-04-13T10:14:28.894Z,1007.97
2017-04-13T10:15:28.880Z,1007.98
2017-04-13T10:16:28.852Z,1008.03
2017-04-13T10:17:28.829Z,1008.08
2017-04-13T10:18:28.814Z,1008.04
2017-04-13T10:19:28.790Z,1008.12
2017-04-13T10:20:28.765Z,1008.05
2017-04-13T10:21:28.747Z,1008.06
2017-04-13T10:22:28.723Z,1008.01
2017-04-13T10:23:28.702Z,1008.09
2017-04-13T10:24:28.683Z,1008.09
2017-04-13T10:25:28.660Z,1008.05
2017-04-13T10:26:28.647Z,1008.08
2017-04-13T10:27:28.616Z,1008.14
2017-04-13T10:28:28.595Z,1008.11
2017-04-13T10:29:28.572Z,1008.06
2017-04-13T10:30:28.551Z,1008.08
2017-04-13T10:31:28.530Z,1008.13
2017-04-13T10:32:28.511Z,1008.19
2017-04-13T10:33:28.488Z,1008.25
2017-04-13T10:34:28.466Z,1008.28
2017-04-13T10:35:28.445Z,1008.27
2017-04-13T10:36:28.474Z,1008.32
2017-04-13T10:37:28.399Z,1008.29
2017-04-13T10:38:28.381Z,1008.31
2017-04-13T10:39:28.361Z,1008.28
2017-04-13T10:40:28.336Z,1008.35
2017-04-13T10:41:28.311Z,1008.31
2017-04-13T10:42:28.291Z,1008.36
2017-04-13T10:43:28.268Z,1008.38
2017-04-13T10:44:28.247Z,1008.35
2017-04-13T10:45:28.226Z,1008.35
2017-04-13T10:46:28.656Z,1008.41
2017-04-13T10:47:28.187Z,1008.37
2017-04-13T10:48:28.162Z,1008.45
2017-04-13T10:49:28.139Z,1008.38
2017-04-13T10:50:28.116Z,1008.38
2017-04-13T10:51:28.099Z,1008.42
2017-04-13T10:52:28.073Z,1008.44
2017-04-13T10:53:28.057Z,1008.44
2017-04-13T10:54:28.030Z,1008.31
2017-04-13T10:55:28.008Z,1008.35
2017-04-13T10:56:27.991Z,1008.37
2017-04-13T10:57:27.967Z,1008.34
2017-04-13T10:58:27.941Z,1008.38
2017-04-13T10:59:27.919Z,1008.41
2017-04-13T11:00:27.898Z,1008.43
2017-04-13T11:01:27.877Z,1008.46
2017-04-13T11:02:27.860Z,1008.41
2017-04-13T11:03:27.833Z,1008.47
2017-04-13T11:04:27.810Z,1008.44
2017-04-13T11:05:27.788Z,1008.5
2017-04-13T11:06:27.766Z,1008.45
2017-04-13T11:07:27.744Z,1008.49
2017-04-13T11:08:27.726Z,1008.51
2017-04-13T11:09:27.704Z,1008.58
2017-04-13T11:10:27.680Z,1008.65
2017-04-13T11:11:27.660Z,1008.64
2017-04-13T11:12:27.642Z,1008.62
2017-04-13T11:13:27.614Z,1008.59
2017-04-13T11:14:27.593Z,1008.67
2017-04-13T11:15:27.574Z,1008.69
2017-04-13T11:16:27.549Z,1008.68
2017-04-13T11:17:27.531Z,1008.67
2017-04-13T11:18:27.509Z,1008.62
2017-04-13T11:19:27.484Z,1008.68
2017-04-13T11:20:27.466Z,1008.72
2017-04-13T11:21:27.445Z,1008.72
2017-04-13T11:22:27.419Z,1008.7
2017-04-13T11:23:27.397Z,1008.68
2017-04-13T11:24:27.375Z,1008.67
2017-04-13T11:25:27.350Z,1008.72
2017-04-13T11:26:27.328Z,1008.71
2017-04-13T11:27:27.308Z,1008.72
2017-04-13T11:28:27.283Z,1008.67
2017-04-13T11:29:27.263Z,1008.67
2017-04-13T11:30:27.240Z,1008.63
2017-04-13T11:31:27.218Z,1008.62
2017-04-13T11:32:27.196Z,1008.67
2017-04-13T11:33:27.175Z,1008.69
2017-04-13T11:34:27.153Z,1008.7
2017-04-13T11:35:27.134Z,1008.7
2017-04-13T11:36:27.110Z,1008.66
2017-04-13T11:37:27.135Z,1008.7
2017-04-13T11:38:27.062Z,1008.71
2017-04-13T11:39:27.046Z,1008.73
2017-04-13T11:40:27.019Z,1008.7
2017-04-13T11:41:26.995Z,1008.72
2017-04-13T11:42:26.978Z,1008.74
2017-04-13T11:43:26.956Z,1008.71
2017-04-13T11:44:26.931Z,1008.72
2017-04-13T11:45:26.908Z,1008.71
2017-04-13T11:46:26.937Z,1008.67
2017-04-13T11:47:26.864Z,1008.68
2017-04-13T11:48:26.844Z,1008.69
2017-04-13T11:49:26.820Z,1008.7
2017-04-13T11:50:26.803Z,1008.71
2017-04-13T11:51:26.777Z,1008.62
2017-04-13T11:52:26.755Z,1008.7
2017-04-13T11:53:26.734Z,1008.67
2017-04-13T11:54:26.711Z,1008.73
2017-04-13T11:55:26.689Z,1008.68
2017-04-13T11:56:26.673Z,1008.71
2017-04-13T11:57:26.643Z,1008.71
2017-04-13T11:58:26.627Z,1008.72
2017-04-13T11:59:26.601Z,1008.73
2017-04-13T12:00:26.582Z,1008.65
2017-04-13T12:01:26.561Z,1008.68
2017-04-13T12:02:26.542Z,1008.61
2017-04-13T12:03:26.514Z,1008.64
2017-04-13T12:04:26.499Z,1008.64
2017-04-13T12:05:26.472Z,1008.6
2017-04-13T12:06:26.451Z,1008.56
2017-04-13T12:07:26.431Z,1008.6
2017-04-13T12:08:26.410Z,1008.58